METAR AND TAF INFORMATION
METAR FOR ENGM
ADDS - METARS form results

(2249 UTC 23 August 2019)
Data provider http://aviationweather.gov/metar/data/
 
METAR text: ENGM 232220Z 00000KT CAVOK 14/09 Q1020
Conditions at: ENGM (OSLO/GARDERMOEN , NO) observed 2220 UTC 23 August 2019
Temperature: 14.0°C (57°F)
Dewpoint: 9.0°C (48°F) [RH = 72%]
Pressure (altimeter): 30.12 inches Hg (1020.0 mb)
Winds: calm
Visibility: 6 or more miles (10+ km)
Ceiling: ceiling and visibility are OK
Clouds: unknown
Weather: no significant weather observed at this time

METAR text: ENGM 232150Z VRB01KT CAVOK 14/09 Q1020
Conditions at: ENGM (OSLO/GARDERMOEN , NO) observed 2150 UTC 23 August 2019
Temperature: 14.0°C (57°F)
Dewpoint: 9.0°C (48°F) [RH = 72%]
Pressure (altimeter): 30.12 inches Hg (1020.0 mb)
Winds: variable direction winds at 1 MPH (1 knots; 0.5 m/s)
Visibility: 6 or more miles (10+ km)
Ceiling: ceiling and visibility are OK
Clouds: unknown
Weather: no significant weather observed at this time

Forecast for: ENGM (OSLO/GARDERMOEN , NO)
Text: TAF ENGM 2318/2418 VRB03KT CAVOK
Forecast period: 1800 UTC 23 August 2019 to 1000 UTC 24 August 2019
Forecast type: FROM: standard forecast or significant change
Winds: variable direction winds at 3 MPH (3 knots; 1.5 m/s)
Visibility: 6 or more miles 10+ km)
Ceiling: unknown
Clouds: missing
Weather: NSW  (no significant weather)
Text: BECMG 2410/2412 20010KT
Forecast period: 1000 to 1800 UTC 24 August 2019
Forecast type: BECOMING: Conditions expected to become as follows by 1200 UTC 24 August 2019
Winds: from the SSW (200 degrees) at 12 MPH (10 knots; 5.1 m/s)
Visibility: 6 or more miles 10+ km)
Ceiling: unknown
Clouds: missing
Weather: NSW  (no significant weather)

 AIRPORT MAP

 RUNWAY INFORMATION
Runway 01L Runway length 11811 ft Runway width 148 ft
Runway elevation 656 ft Runway displaced threshold 0 ft Runway heading 16
Runway 19R Runway length 11811 ft Runway width 148 ft
Runway elevation 675 ft Runway displaced threshold 0 ft Runway heading 196
Runway 01R Runway length 9678 ft Runway width 148 ft
Runway elevation 670 ft Runway displaced threshold 0 ft Runway heading 16
Runway 19L Runway length 9678 ft Runway width 148 ft
Runway elevation 681 ft Runway displaced threshold 0 ft Runway heading 196

 AIRPORT FREQUENCIES
Type APP Name APP Frequency 119.975 MHZ
Type ATIS Name ATIS Frequency 126.125 MHZ
Type CLD Name CLNC DEL Frequency 121.6 MHZ
Type DIR Name DIRECTOR Frequency 131.35 MHZ
Type GND Name GND Frequency 121.925 MHZ
Type MISC Name DE ICING Frequency 131.975 MHZ
Type OPS Name WINGOPS Frequency 29.38 MHZ
Type PMSV Name PMSV METRO Frequency 134.175 MHZ
Type TWR Name TWR Frequency 118.3 MHZ

 AIRPORT NEAR NAVIGATION AIDS
Type NDB Name Bergerud Frequency 316 KHZ
Type VOR-DME Name Gardermoen Frequency 115950 KHZ
Type NDB Name Oppaker Frequency 334 KHZ
Type NDB Name Solberg Frequency 414 KHZ
Type NDB Name Soknen Frequency 387 KHZ